createdAt,value
2023-01-11T00:00:23.420Z,20.42
2023-01-11T00:02:54.695Z,20.41
2023-01-11T00:05:21.007Z,20.41
2023-01-11T00:07:47.327Z,20.40
2023-01-11T00:10:13.699Z,20.39
2023-01-11T00:12:40.060Z,20.39
2023-01-11T00:15:07.096Z,20.39
2023-01-11T00:17:33.529Z,20.36
2023-01-11T00:19:59.918Z,20.36
2023-01-11T00:22:27.147Z,20.35
2023-01-11T00:24:53.472Z,20.34
2023-01-11T00:27:19.800Z,20.34
2023-01-11T00:29:46.203Z,20.34
2023-01-11T00:32:12.527Z,20.32
2023-01-11T00:34:38.849Z,20.31
2023-01-11T00:37:05.275Z,20.31
2023-01-11T00:39:31.589Z,20.29
2023-01-11T00:42:16.843Z,20.29
2023-01-11T00:45:01.677Z,20.28
2023-01-11T00:47:46.823Z,20.27
2023-01-11T00:50:13.157Z,20.27
2023-01-11T00:52:39.495Z,20.26
2023-01-11T00:55:06.020Z,20.24
2023-01-11T00:57:32.472Z,20.24
2023-01-11T00:59:58.805Z,20.24
2023-01-11T01:02:25.143Z,20.24
2023-01-11T01:04:51.534Z,20.23
2023-01-11T01:07:17.857Z,20.22
2023-01-11T01:09:44.169Z,20.22
2023-01-11T01:12:10.482Z,20.22
2023-01-11T01:14:36.863Z,20.21
2023-01-11T01:17:03.964Z,20.20
2023-01-11T01:19:30.664Z,20.20
2023-01-11T01:21:57.136Z,20.19
2023-01-11T01:24:23.597Z,20.18
2023-01-11T01:26:49.929Z,20.18
2023-01-11T01:29:16.263Z,20.18
2023-01-11T01:31:42.836Z,20.18
2023-01-11T01:34:09.399Z,20.17
2023-01-11T01:36:35.727Z,20.16
2023-01-11T01:39:02.090Z,20.14
2023-01-11T01:41:28.446Z,20.14
2023-01-11T01:43:55.694Z,20.14
2023-01-11T01:46:22.615Z,20.13
2023-01-11T01:49:01.255Z,20.13
2023-01-11T01:51:28.762Z,20.12
2023-01-11T01:53:55.738Z,20.12
2023-01-11T01:56:26.387Z,20.12
2023-01-11T01:58:54.406Z,20.11
2023-01-11T02:01:39.708Z,20.11
2023-01-11T02:04:07.627Z,20.08
2023-01-11T02:06:34.028Z,20.10
2023-01-11T02:09:02.221Z,20.07
2023-01-11T02:11:31.211Z,20.08
2023-01-11T02:14:02.029Z,20.07
2023-01-11T02:16:28.351Z,20.06
2023-01-11T02:19:11.682Z,20.06
2023-01-11T02:21:37.948Z,20.05
2023-01-11T02:24:09.240Z,20.04
2023-01-11T02:26:55.580Z,20.05
2023-01-11T02:29:24.686Z,20.06
2023-01-11T02:31:53.653Z,20.08
2023-01-11T02:34:37.960Z,20.09
2023-01-11T02:37:12.375Z,20.11
2023-01-11T02:39:44.735Z,20.13
2023-01-11T02:42:29.536Z,20.13
2023-01-11T02:45:01.617Z,20.14
2023-01-11T02:47:33.880Z,20.14
2023-01-11T02:50:06.686Z,20.13
2023-01-11T02:52:37.200Z,20.14
2023-01-11T02:55:03.546Z,20.13
2023-01-11T02:57:29.878Z,20.12
2023-01-11T02:59:58.079Z,20.12
2023-01-11T03:02:24.561Z,20.11
2023-01-11T03:04:50.885Z,20.11
2023-01-11T03:07:28.179Z,20.09
2023-01-11T03:10:08.367Z,20.09
2023-01-11T03:12:54.669Z,20.07
2023-01-11T03:15:25.458Z,20.06
2023-01-11T03:18:10.723Z,20.07
2023-01-11T03:20:38.143Z,20.06
2023-01-11T04:52:32.184Z,20.18
2023-01-11T04:54:58.527Z,20.19
2023-01-11T04:57:25.325Z,20.19
2023-01-11T04:59:51.688Z,20.19
2023-01-11T05:02:18.116Z,20.20
2023-01-11T05:04:44.498Z,20.21
2023-01-11T05:07:11.027Z,20.22
2023-01-11T05:09:37.395Z,20.21
2023-01-11T05:12:03.737Z,20.22
2023-01-11T05:14:30.069Z,20.23
2023-01-11T05:16:56.415Z,20.21
2023-01-11T05:19:22.751Z,20.22
2023-01-11T05:21:49.069Z,20.21
2023-01-11T05:24:15.692Z,20.21
2023-01-11T05:26:42.411Z,20.21
2023-01-11T05:29:09.455Z,20.22
2023-01-11T05:31:36.279Z,20.22
2023-01-11T05:34:02.716Z,20.23
2023-01-11T05:36:29.031Z,20.22
2023-01-11T05:38:55.706Z,20.24
2023-01-11T05:41:23.470Z,20.24
2023-01-11T05:44:08.633Z,20.23
2023-01-11T05:46:35.090Z,20.24
2023-01-11T05:49:01.645Z,20.21
2023-01-11T05:51:30.435Z,20.23
2023-01-11T05:53:57.131Z,20.23
2023-01-11T05:56:23.452Z,20.23
2023-01-11T05:58:50.031Z,20.23
2023-01-11T06:01:16.475Z,20.24
2023-01-11T06:03:42.855Z,20.24
2023-01-11T06:06:09.184Z,20.26
2023-01-11T06:08:35.515Z,20.25
2023-01-11T06:11:01.837Z,20.25
2023-01-11T06:13:28.242Z,20.28
2023-01-11T06:15:54.509Z,20.27
2023-01-11T06:18:20.995Z,20.27
2023-01-11T06:20:53.632Z,20.28
2023-01-11T06:23:20.056Z,20.29
2023-01-11T06:25:46.380Z,20.28
2023-01-11T06:28:12.700Z,20.29
2023-01-11T06:30:39.047Z,20.27
2023-01-11T06:33:06.183Z,20.29
2023-01-11T06:35:39.354Z,20.31
2023-01-11T06:38:05.991Z,20.34
2023-01-11T06:40:32.348Z,20.33
2023-01-11T06:42:58.866Z,20.32
2023-01-11T06:45:25.243Z,20.34
2023-01-11T06:47:51.567Z,20.33
2023-01-11T06:50:17.937Z,20.34
2023-01-11T06:52:44.320Z,19.79
2023-01-11T06:55:10.766Z,19.97
2023-01-11T06:57:37.127Z,20.13
2023-01-11T07:00:03.729Z,20.29
2023-01-11T07:02:30.318Z,20.29
2023-01-11T07:04:56.728Z,20.28
2023-01-11T07:07:23.113Z,20.29
2023-01-11T07:09:49.492Z,20.28
2023-01-11T07:12:15.961Z,20.47
2023-01-11T07:14:42.353Z,20.58
2023-01-11T07:17:08.689Z,20.38
2023-01-11T07:19:35.053Z,20.28
2023-01-11T07:22:01.602Z,19.84
2023-01-11T07:24:28.199Z,19.92
2023-01-11T07:26:56.263Z,19.88
2023-01-11T07:29:22.632Z,19.79
2023-01-11T07:31:49.026Z,19.74
2023-01-11T07:34:15.410Z,19.78
2023-01-11T07:36:41.728Z,19.74
2023-01-11T07:39:08.139Z,19.73
2023-01-11T07:41:53.239Z,19.79
2023-01-11T07:44:19.602Z,20.51
2023-01-11T07:46:46.077Z,20.81
2023-01-11T07:49:12.460Z,20.99
2023-01-11T07:51:38.814Z,21.11
2023-01-11T07:54:05.142Z,21.22
2023-01-11T07:56:31.510Z,21.30
2023-01-11T07:58:57.863Z,21.33
2023-01-11T08:01:24.195Z,21.43
2023-01-11T08:03:51.044Z,21.48
2023-01-11T08:06:17.422Z,21.53
2023-01-11T08:08:43.777Z,21.57
2023-01-11T08:11:30.031Z,21.60
2023-01-11T08:14:15.050Z,21.63
2023-01-11T08:16:41.400Z,21.61
2023-01-11T08:19:07.745Z,21.18
2023-01-11T08:21:34.082Z,20.90
2023-01-11T08:24:00.433Z,20.75
2023-01-11T08:26:26.825Z,20.72
2023-01-11T08:28:53.295Z,20.67
2023-01-11T08:31:19.655Z,20.66
2023-01-11T08:33:46.024Z,20.68
2023-01-11T08:36:12.677Z,20.65
2023-01-11T08:38:39.050Z,20.64
2023-01-11T08:41:10.620Z,20.73
2023-01-11T08:43:46.114Z,20.96
2023-01-11T08:46:12.479Z,21.01
2023-01-11T08:48:38.845Z,20.98
2023-01-11T08:51:05.179Z,21.17
2023-01-11T08:53:31.825Z,21.31
2023-01-11T08:55:58.148Z,21.41
2023-01-11T08:58:25.348Z,21.37
2023-01-11T09:00:51.671Z,21.37
2023-01-11T09:03:18.784Z,21.19
2023-01-11T09:05:45.122Z,21.17
2023-01-11T09:08:11.435Z,21.19
2023-01-11T09:10:37.785Z,21.25
2023-01-11T09:13:04.124Z,21.28
2023-01-11T09:15:30.462Z,21.30
2023-01-11T09:17:56.798Z,21.29
2023-01-11T09:20:23.148Z,21.14
2023-01-11T09:22:52.649Z,20.98
2023-01-11T09:25:19.466Z,20.96
2023-01-11T09:27:46.004Z,20.87
2023-01-11T09:30:12.683Z,20.84
2023-01-11T09:32:39.016Z,20.80
2023-01-11T09:35:06.167Z,20.79
2023-01-11T09:37:32.580Z,20.78
2023-01-11T09:40:01.954Z,20.76
2023-01-11T09:42:36.754Z,20.74
2023-01-11T09:45:05.735Z,20.72
2023-01-11T09:47:40.882Z,20.71
2023-01-11T09:50:11.524Z,20.69
2023-01-11T09:52:41.009Z,20.70
2023-01-11T09:55:11.607Z,20.67
2023-01-11T09:57:44.062Z,20.67
2023-01-11T10:00:19.507Z,20.68
2023-01-11T10:03:04.766Z,20.67
2023-01-11T10:05:31.822Z,20.65
2023-01-11T10:14:01.245Z,20.65
2023-01-11T10:18:37.592Z,20.64
2023-01-11T10:19:40.400Z,20.64
2023-01-11T10:22:32.527Z,20.65
2023-01-11T10:25:07.519Z,20.65
2023-01-11T10:27:36.235Z,20.64
2023-01-11T10:30:24.073Z,20.64
2023-01-11T10:32:57.859Z,20.65
2023-01-11T10:35:45.732Z,20.66
2023-01-11T10:38:40.854Z,20.81
2023-01-11T10:41:15.793Z,21.07
2023-01-11T10:43:43.871Z,21.12
2023-01-11T10:46:12.407Z,21.21
2023-01-11T10:48:42.424Z,21.26
2023-01-11T10:51:17.409Z,21.24
2023-01-11T10:53:50.746Z,21.23
2023-01-11T10:56:24.959Z,21.22
2023-01-11T10:59:15.667Z,21.28
2023-01-11T11:01:49.055Z,21.34
2023-01-11T11:04:33.989Z,21.31
2023-01-11T11:07:00.278Z,21.31
2023-01-11T11:09:29.499Z,21.28
2023-01-11T11:11:59.343Z,21.24
2023-01-11T11:14:34.670Z,21.29
2023-01-11T11:17:13.386Z,21.19
2023-01-11T11:19:41.226Z,21.27
2023-01-11T11:22:09.533Z,21.26
2023-01-11T11:24:37.177Z,21.33
2023-01-11T11:27:07.176Z,21.43
2023-01-11T11:29:33.568Z,21.27
2023-01-11T11:32:00.320Z,21.33
2023-01-11T11:34:27.434Z,21.52
2023-01-11T11:36:53.784Z,21.50
2023-01-11T11:39:28.318Z,21.49
2023-01-11T11:42:04.150Z,21.57
2023-01-11T11:44:30.474Z,21.61
2023-01-11T11:47:04.283Z,21.61
2023-01-11T11:49:31.636Z,21.65
2023-01-11T11:51:58.613Z,21.63
2023-01-11T11:54:26.079Z,21.57
2023-01-11T11:56:54.292Z,21.65
2023-01-11T11:59:21.037Z,21.71
2023-01-11T12:01:48.444Z,21.71
2023-01-11T12:04:18.652Z,21.66
2023-01-11T12:06:50.887Z,21.72
2023-01-11T12:09:21.179Z,21.72
2023-01-11T12:11:47.535Z,21.43
2023-01-11T12:14:17.746Z,21.19
2023-01-11T12:16:44.431Z,21.25
2023-01-11T12:19:29.415Z,21.29
2023-01-11T12:22:14.823Z,21.29
2023-01-11T12:24:41.169Z,21.34
2023-01-11T12:27:20.331Z,21.43
2023-01-11T12:30:01.902Z,21.32
2023-01-11T12:32:42.296Z,21.21
2023-01-11T12:35:12.477Z,21.28
2023-01-11T12:37:57.585Z,21.28
2023-01-11T12:40:34.556Z,21.26
2023-01-11T12:43:07.239Z,21.25
2023-01-11T12:45:33.583Z,21.28
2023-01-11T12:48:13.302Z,21.31
2023-01-11T12:50:50.767Z,21.30
2023-01-11T12:53:22.810Z,21.33
2023-01-11T12:56:07.955Z,21.33
2023-01-11T12:58:36.006Z,21.37
2023-01-11T13:01:20.532Z,21.36
2023-01-11T13:03:49.863Z,21.40
2023-01-11T13:06:17.617Z,21.58
2023-01-11T13:08:55.526Z,21.69
2023-01-11T13:11:36.908Z,21.65
2023-01-11T13:14:06.237Z,21.53
2023-01-11T13:16:38.427Z,21.52
2023-01-11T13:19:07.471Z,21.47
2023-01-11T13:21:52.831Z,21.50
2023-01-11T13:24:27.254Z,21.60
2023-01-11T13:26:54.654Z,21.69
2023-01-11T13:29:24.619Z,21.77
2023-01-11T13:31:51.063Z,21.66
2023-01-11T13:34:25.289Z,21.44
2023-01-11T13:36:52.829Z,21.30
2023-01-11T13:39:22.044Z,21.31
2023-01-11T13:41:49.096Z,21.32
2023-01-11T13:44:18.642Z,21.36
2023-01-11T13:47:03.011Z,21.37
2023-01-11T13:49:34.808Z,21.30
2023-01-11T13:52:03.996Z,21.28
2023-01-11T13:54:41.875Z,21.26
2023-01-11T13:57:10.906Z,21.28
2023-01-11T13:59:41.357Z,21.33
2023-01-11T14:02:26.137Z,21.39
2023-01-11T14:04:58.474Z,21.45
2023-01-11T14:07:43.676Z,21.40
2023-01-11T14:10:19.664Z,21.42
2023-01-11T14:12:49.981Z,21.42
2023-01-11T14:15:19.536Z,21.39
2023-01-11T14:17:51.485Z,21.45
2023-01-11T14:20:20.433Z,21.48
2023-01-11T14:23:07.450Z,21.51
2023-01-11T14:25:36.715Z,21.44
2023-01-11T14:28:12.078Z,21.39
2023-01-11T14:30:55.226Z,21.41
2023-01-11T14:33:28.795Z,21.40
2023-01-11T14:36:11.519Z,21.39
2023-01-11T14:38:41.869Z,21.36
2023-01-11T14:41:11.831Z,21.33
2023-01-11T14:43:43.896Z,21.25
2023-01-11T14:46:19.946Z,21.20
2023-01-11T14:48:49.323Z,21.19
2023-01-11T14:51:23.823Z,21.19
2023-01-11T14:53:54.571Z,21.18
2023-01-11T14:56:39.664Z,21.20
2023-01-11T14:59:06.688Z,21.17
2023-01-11T15:02:06.748Z,21.18
2023-01-11T15:04:33.941Z,21.16
2023-01-11T15:07:00.360Z,21.15
2023-01-11T15:09:45.395Z,21.14
2023-01-11T15:12:12.334Z,21.14
2023-01-11T15:14:38.753Z,21.12
2023-01-11T15:17:23.875Z,21.10
2023-01-11T15:19:51.307Z,21.09
2023-01-11T15:22:43.950Z,21.08
2023-01-11T15:25:26.500Z,21.23
2023-01-11T15:27:52.874Z,21.25
2023-01-11T15:30:31.167Z,21.23
2023-01-11T15:33:16.363Z,21.30
2023-01-11T15:36:02.429Z,21.23
2023-01-11T15:38:37.181Z,21.25
2023-01-11T15:41:23.824Z,21.25
2023-01-11T15:44:08.825Z,21.30
2023-01-11T15:46:54.409Z,21.33
2023-01-11T15:49:21.259Z,21.34
2023-01-11T15:51:53.608Z,21.47
2023-01-11T15:54:35.020Z,21.42
2023-01-11T15:57:12.248Z,21.45
2023-01-11T15:59:56.777Z,21.45
2023-01-11T16:02:42.124Z,21.41
2023-01-11T16:05:21.437Z,21.42
2023-01-11T16:07:57.728Z,21.37
2023-01-11T16:10:29.689Z,21.32
2023-01-11T16:13:05.210Z,21.31
2023-01-11T16:15:43.512Z,21.27
2023-01-11T16:18:14.508Z,21.29
2023-01-11T16:20:42.028Z,21.33
2023-01-11T16:23:08.880Z,21.39
2023-01-11T16:25:36.767Z,21.40
2023-01-11T16:28:03.104Z,21.37
2023-01-11T16:30:29.464Z,21.39
2023-01-11T16:33:22.205Z,21.48
2023-01-11T16:35:48.578Z,21.50
2023-01-11T16:38:18.626Z,21.41
2023-01-11T16:40:49.706Z,21.41
2023-01-11T16:43:23.193Z,21.43
2023-01-11T16:45:50.232Z,21.44
2023-01-11T16:48:20.668Z,21.48
2023-01-11T16:50:56.638Z,21.57
2023-01-11T16:53:24.180Z,21.40
2023-01-11T16:55:54.508Z,21.34
2023-01-11T16:58:22.498Z,21.41
2023-01-11T17:01:01.753Z,21.38
2023-01-11T17:03:31.559Z,21.38
2023-01-11T17:06:04.088Z,21.40
2023-01-11T17:08:33.204Z,21.42
2023-01-11T17:11:18.047Z,21.40
2023-01-11T17:13:54.951Z,21.45
2023-01-11T17:16:22.383Z,21.42
2023-01-11T17:18:48.758Z,21.43
2023-01-11T17:21:16.908Z,21.37
2023-01-11T17:23:44.690Z,21.37
2023-01-11T17:26:15.006Z,21.40
2023-01-11T17:28:43.611Z,21.39
2023-01-11T17:31:10.267Z,21.37
2023-01-11T17:33:36.615Z,21.30
2023-01-11T17:36:02.946Z,21.30
2023-01-11T17:38:29.311Z,21.38
2023-01-11T17:40:56.712Z,21.32
2023-01-11T17:43:42.443Z,21.32
2023-01-11T17:46:09.651Z,21.31
2023-01-11T17:48:36.063Z,21.31
2023-01-11T17:51:02.782Z,21.32
2023-01-11T17:53:29.119Z,21.39
2023-01-11T17:55:58.943Z,21.36
2023-01-11T17:58:31.866Z,21.33
2023-01-11T18:01:00.982Z,21.39
2023-01-11T18:03:27.355Z,21.40
2023-01-11T18:05:53.700Z,21.43
2023-01-11T18:08:20.281Z,21.43
2023-01-11T18:10:55.914Z,21.36
2023-01-11T18:13:26.308Z,21.34
2023-01-11T18:15:52.641Z,21.36
2023-01-11T18:18:38.337Z,21.42
2023-01-11T18:21:06.256Z,21.44
2023-01-11T18:23:32.590Z,21.38
2023-01-11T18:26:17.655Z,21.36
2023-01-11T18:28:44.146Z,21.32
2023-01-11T18:31:10.486Z,21.36
2023-01-11T18:33:36.835Z,21.38
2023-01-11T18:36:03.427Z,21.43
2023-01-11T18:38:33.569Z,21.36
2023-01-11T18:41:20.355Z,21.30
2023-01-11T18:43:46.689Z,21.31
2023-01-11T18:46:13.104Z,21.26
2023-01-11T18:48:39.461Z,21.20
2023-01-11T18:51:05.845Z,21.11
2023-01-11T18:53:32.173Z,21.09
2023-01-11T18:55:58.503Z,21.15
2023-01-11T18:58:24.833Z,20.97
2023-01-11T19:00:51.164Z,20.74
2023-01-11T19:03:17.546Z,20.85
2023-01-11T19:05:43.925Z,20.99
2023-01-11T19:08:10.270Z,21.04
2023-01-11T19:10:36.638Z,21.07
2023-01-11T19:13:03.020Z,20.99
2023-01-11T19:15:29.409Z,21.03
2023-01-11T19:17:55.825Z,21.05
2023-01-11T19:20:22.191Z,21.02
2023-01-11T19:22:48.865Z,21.21
2023-01-11T19:25:15.379Z,21.25
2023-01-11T19:27:41.818Z,21.25
2023-01-11T19:30:08.385Z,21.15
2023-01-11T19:32:34.720Z,21.14
2023-01-11T19:35:01.457Z,21.10
2023-01-11T19:37:27.924Z,21.07
2023-01-11T19:39:54.272Z,21.08
2023-01-11T19:42:21.022Z,21.15
2023-01-11T19:44:47.350Z,21.15
2023-01-11T19:47:15.654Z,21.11
2023-01-11T19:49:42.272Z,21.09
2023-01-11T19:52:13.172Z,21.22
2023-01-11T19:54:41.678Z,21.23
2023-01-11T19:57:08.740Z,21.16
2023-01-11T19:59:35.090Z,21.19
2023-01-11T20:02:01.423Z,21.28
2023-01-11T20:04:27.831Z,21.28
2023-01-11T20:06:55.018Z,21.32
2023-01-11T20:09:21.571Z,21.29
2023-01-11T20:11:49.277Z,21.33
2023-01-11T20:14:16.215Z,21.33
2023-01-11T20:16:42.543Z,21.36
2023-01-11T20:19:08.866Z,21.38
2023-01-11T20:21:35.233Z,21.30
2023-01-11T20:24:01.932Z,21.33
2023-01-11T20:26:30.538Z,21.30
2023-01-11T20:28:57.016Z,21.26
2023-01-11T20:31:27.869Z,21.27
2023-01-11T20:33:54.777Z,21.24
2023-01-11T20:36:21.356Z,21.22
2023-01-11T20:38:47.680Z,21.20
2023-01-11T20:41:34.949Z,21.19
2023-01-11T20:44:01.588Z,21.16
2023-01-11T20:46:28.206Z,21.14
2023-01-11T20:48:54.561Z,21.13
2023-01-11T20:51:20.919Z,21.09
2023-01-11T20:53:47.331Z,21.12
2023-01-11T20:56:13.789Z,21.12
2023-01-11T20:58:40.137Z,21.12
2023-01-11T21:01:06.938Z,21.09
2023-01-11T21:03:33.284Z,21.10
2023-01-11T21:06:05.961Z,21.10
2023-01-11T21:08:32.400Z,21.08
2023-01-11T21:11:05.352Z,21.08
2023-01-11T21:13:31.820Z,21.08
2023-01-11T21:15:58.197Z,21.07
2023-01-11T21:18:24.647Z,21.03
2023-01-11T21:20:51.088Z,21.04
2023-01-11T21:23:17.421Z,21.03
2023-01-11T21:25:43.779Z,21.00
2023-01-11T21:28:10.137Z,21.01
2023-01-11T21:30:36.470Z,21.00
2023-01-11T21:33:02.832Z,20.99
2023-01-11T21:35:29.390Z,20.97
2023-01-11T21:37:55.729Z,20.97
2023-01-11T21:40:22.072Z,20.94
2023-01-11T21:42:48.408Z,20.92
2023-01-11T21:45:14.848Z,20.90
2023-01-11T21:47:43.476Z,20.91
2023-01-11T21:50:10.204Z,20.91
2023-01-11T21:52:36.598Z,20.91
2023-01-11T21:55:02.934Z,20.91
2023-01-11T21:57:29.302Z,20.88
2023-01-11T21:59:55.661Z,20.82
2023-01-11T22:02:22.020Z,20.82
2023-01-11T22:04:48.671Z,20.83
2023-01-11T22:07:15.103Z,20.80
2023-01-11T22:09:53.380Z,20.80
2023-01-11T22:12:27.877Z,20.79
2023-01-11T22:14:54.266Z,20.76
2023-01-11T22:17:20.629Z,20.76
2023-01-11T22:19:46.972Z,20.74
2023-01-11T22:22:13.328Z,20.76
2023-01-11T22:24:39.663Z,20.76
2023-01-11T22:27:06.052Z,20.74
2023-01-11T22:29:32.461Z,20.73
2023-01-11T22:32:01.325Z,20.72
2023-01-11T22:34:27.726Z,20.70
2023-01-11T22:36:54.398Z,20.68
2023-01-11T22:39:20.811Z,20.67
2023-01-11T22:41:48.219Z,20.67
2023-01-11T22:44:14.652Z,20.66
2023-01-11T22:46:41.022Z,20.65
2023-01-11T22:49:07.475Z,20.64
2023-01-11T22:51:34.076Z,20.64
2023-01-11T22:54:00.459Z,20.63
2023-01-11T22:56:26.832Z,20.61
2023-01-11T22:58:53.477Z,20.60
2023-01-11T23:01:20.793Z,20.60
2023-01-11T23:03:47.182Z,20.60
2023-01-11T23:06:15.732Z,20.59
2023-01-11T23:08:42.477Z,20.57
2023-01-11T23:11:15.609Z,20.56
2023-01-11T23:13:54.969Z,20.55
2023-01-11T23:16:21.744Z,20.54
2023-01-11T23:18:48.386Z,20.53
2023-01-11T23:21:15.655Z,20.53
2023-01-11T23:23:41.987Z,20.51
2023-01-11T23:26:08.454Z,20.49
2023-01-11T23:28:34.902Z,20.48
2023-01-11T23:31:06.884Z,20.47
2023-01-11T23:33:33.214Z,20.46
2023-01-11T23:35:59.604Z,20.46
2023-01-11T23:38:25.939Z,20.46
2023-01-11T23:41:10.886Z,20.45
2023-01-11T23:43:38.531Z,20.44
2023-01-11T23:46:23.643Z,20.43
2023-01-11T23:48:50.151Z,20.42
2023-01-11T23:51:16.588Z,20.42
2023-01-11T23:53:42.922Z,20.40
2023-01-11T23:56:09.281Z,20.41
2023-01-11T23:58:35.609Z,20.40
